3b Spirit — 9HA2525 — position and weather

sailwx.info

Track history (hours):
 
Tides and Currents Weather Stations Pressure Air Temp Water Temp Dewpoint Dewpoint Depression Visibility Wind Speed Wind Dir Waves Ship Positions

3b Spirit

Last reported at 2017-Sep-25 09:28 UTC. Time now 2017-Sep-26 09:33 UTC.
Position N 41°05' E 001°16'.

Length 106 m; draft 4.5 m.

Type: Ship. MMSI: 248816000.

Date/timePositionNaut miles runAvg speedWind from/ knotsBaromVisibWave heightAir tempDewpointWater temp
2017-Sep-25 09:28N 41°05' E 001°16'0 0.0
2017-Sep-25 02:28N 41°05' E 001°16'0 0.0
2017-Sep-25 00:52N 41°05' E 001°16'0 0.0
2017-Sep-25 00:22N 41°05' E 001°16'0 0.0
2017-Sep-24 19:04N 41°05' E 001°16'0 0.0
2017-Sep-24 17:58N 41°05' E 001°16'0 0.0
2017-Sep-24 14:21N 41°05' E 001°16'0 0.0
2017-Sep-24 13:51N 41°05' E 001°16'0 0.0
2017-Sep-24 13:27N 41°05' E 001°16'0 0.1
2017-Sep-24 12:47N 41°05' E 001°16'1 2.9
2017-Sep-24 12:30N 41°05' E 001°15'510.9
2017-Sep-24 12:00N 40°59' E 001°13'1013.8
2017-Sep-24 11:16N 40°50' E 001°09'413.6
2017-Sep-24 10:58N 40°46' E 001°07'613.5
2017-Sep-24 10:30N 40°40' E 001°05'813.6
2017-Sep-24 09:54N 40°32' E 001°03'614.2
2017-Sep-24 09:28N 40°26' E 001°01'714.3
2017-Sep-24 09:00N 40°19' E 000°60'714.4
2017-Sep-24 08:30N 40°12' E 000°58'1014.3
2017-Sep-24 07:50N 40°03' E 000°58'514.1
2017-Sep-24 07:30N 39°58' E 000°58'713.5
2017-Sep-24 07:00N 39°51' E 000°55'713.7
2017-Sep-24 06:27N 39°46' E 000°49'13213.6
2017-Sep-23 20:44N 37°45' W 000°21'313.3
2017-Sep-23 20:30N 37°42' W 000°23'713.4
2017-Sep-23 20:00N 37°37' W 000°28'  
2017-Sep-20 17:07N 28°02' W 013°29'312.8
2017-Sep-20 16:54N 27°60' W 013°30'613.1
2017-Sep-20 16:29N 27°56' W 013°35'613.2
2017-Sep-20 16:00N 27°52' W 013°40'713.2
2017-Sep-20 15:30N 27°47' W 013°46'613.1
2017-Sep-20 15:00N 27°43' W 013°51'1313.2
2017-Sep-20 14:00N 27°34' W 014°02'713.7
2017-Sep-20 13:30N 27°30' W 014°08'1513.2
2017-Sep-20 12:24N 27°20' W 014°20'5413.4
2017-Sep-20 08:24N 26°44' W 015°05'3912.3
2017-Sep-20 05:14N 26°18' W 015°38'412.1
2017-Sep-20 04:55N 26°15' W 015°41'7712.0
2017-Sep-19 22:30N 25°12' W 016°29'3812.2
2017-Sep-19 19:20N 24°39' W 016°50'1511.4
2017-Sep-19 18:01N 24°25' W 016°57'011.2
2017-Sep-19 18:00N 24°25' W 016°58'611.2
2017-Sep-19 17:28N 24°20' W 017°01'  
Track history (hours):
 
Tides and Currents Weather Stations Pressure Air Temp Water Temp Dewpoint Dewpoint Depression Visibility Wind Speed Wind Dir Waves Ship Positions

3b Spirit

Last reported at 2017-Sep-25 09:28 UTC. Time now 2017-Sep-26 09:33 UTC.
Position N 41°05' E 001°16'.

Length 106 m; draft 4.5 m.

Type: Ship. MMSI: 248816000.

Date/timePositionNaut miles runAvg speedWind from/ knotsBaromVisibWave heightAir tempDewpointWater temp
2017-Sep-25 09:28N 41°05' E 001°16'0 0.0
2017-Sep-25 02:28N 41°05' E 001°16'0 0.0
2017-Sep-25 00:52N 41°05' E 001°16'0 0.0
2017-Sep-25 00:22N 41°05' E 001°16'0 0.0
2017-Sep-24 19:04N 41°05' E 001°16'0 0.0
2017-Sep-24 17:58N 41°05' E 001°16'0 0.0
2017-Sep-24 14:21N 41°05' E 001°16'0 0.0
2017-Sep-24 13:51N 41°05' E 001°16'0 0.0
2017-Sep-24 13:27N 41°05' E 001°16'0 0.1
2017-Sep-24 12:47N 41°05' E 001°16'1 2.9
2017-Sep-24 12:30N 41°05' E 001°15'510.9
2017-Sep-24 12:00N 40°59' E 001°13'1013.8
2017-Sep-24 11:16N 40°50' E 001°09'413.6
2017-Sep-24 10:58N 40°46' E 001°07'613.5
2017-Sep-24 10:30N 40°40' E 001°05'813.6
2017-Sep-24 09:54N 40°32' E 001°03'614.2
2017-Sep-24 09:28N 40°26' E 001°01'714.3
2017-Sep-24 09:00N 40°19' E 000°60'714.4
2017-Sep-24 08:30N 40°12' E 000°58'1014.3
2017-Sep-24 07:50N 40°03' E 000°58'514.1
2017-Sep-24 07:30N 39°58' E 000°58'713.5
2017-Sep-24 07:00N 39°51' E 000°55'713.7
2017-Sep-24 06:27N 39°46' E 000°49'13213.6
2017-Sep-23 20:44N 37°45' W 000°21'313.3
2017-Sep-23 20:30N 37°42' W 000°23'713.4
2017-Sep-23 20:00N 37°37' W 000°28'  
2017-Sep-20 17:07N 28°02' W 013°29'312.8
2017-Sep-20 16:54N 27°60' W 013°30'613.1
2017-Sep-20 16:29N 27°56' W 013°35'613.2
2017-Sep-20 16:00N 27°52' W 013°40'713.2
2017-Sep-20 15:30N 27°47' W 013°46'613.1
2017-Sep-20 15:00N 27°43' W 013°51'1313.2
2017-Sep-20 14:00N 27°34' W 014°02'713.7
2017-Sep-20 13:30N 27°30' W 014°08'1513.2
2017-Sep-20 12:24N 27°20' W 014°20'5413.4
2017-Sep-20 08:24N 26°44' W 015°05'3912.3
2017-Sep-20 05:14N 26°18' W 015°38'412.1
2017-Sep-20 04:55N 26°15' W 015°41'7712.0
2017-Sep-19 22:30N 25°12' W 016°29'3812.2
2017-Sep-19 19:20N 24°39' W 016°50'1511.4
2017-Sep-19 18:01N 24°25' W 016°57'011.2
2017-Sep-19 18:00N 24°25' W 016°58'611.2
2017-Sep-19 17:28N 24°20' W 017°01'  

Dump ship's entire track history